createdAt,value
2023-01-13T00:00:16.193Z,90.81
2023-01-13T00:01:16.143Z,90.67
2023-01-13T00:02:16.208Z,89.61
2023-01-13T00:03:16.201Z,89.20
2023-01-13T00:04:16.263Z,89.45
2023-01-13T00:05:16.299Z,90.20
2023-01-13T00:06:16.329Z,90.67
2023-01-13T00:07:16.363Z,90.57
2023-01-13T00:08:16.432Z,90.16
2023-01-13T00:09:16.453Z,90.36
2023-01-13T00:10:16.561Z,91.02
2023-01-13T00:11:16.540Z,90.77
2023-01-13T00:12:16.565Z,90.67
2023-01-13T00:13:16.636Z,90.92
2023-01-13T00:14:16.675Z,91.18
2023-01-13T00:15:16.682Z,90.77
2023-01-13T00:16:16.757Z,90.67
2023-01-13T00:17:16.745Z,90.71
2023-01-13T00:18:16.717Z,91.33
2023-01-13T00:19:16.777Z,91.83
2023-01-13T00:20:16.765Z,91.02
2023-01-13T00:21:16.785Z,91.74
2023-01-13T00:22:16.837Z,91.69
2023-01-13T00:23:16.865Z,91.49
2023-01-13T00:24:16.874Z,90.36
2023-01-13T00:25:16.900Z,91.39
2023-01-13T00:26:16.942Z,90.77
2023-01-13T00:27:16.940Z,90.63
2023-01-13T00:28:17.018Z,90.22
2023-01-13T00:29:17.017Z,90.36
2023-01-13T00:30:17.051Z,91.28
2023-01-13T00:31:17.239Z,91.18
2023-01-13T00:32:17.129Z,91.28
2023-01-13T00:33:17.121Z,92.29
2023-01-13T00:34:17.175Z,92.55
2023-01-13T00:35:17.192Z,92.10
2023-01-13T00:36:17.203Z,91.18
2023-01-13T00:37:17.283Z,91.39
2023-01-13T00:38:17.259Z,91.28
2023-01-13T00:39:17.229Z,92.04
2023-01-13T00:40:17.319Z,92.00
2023-01-13T00:41:17.308Z,91.63
2023-01-13T00:42:17.301Z,91.28
2023-01-13T00:43:17.333Z,91.18
2023-01-13T00:44:17.403Z,91.12
2023-01-13T00:45:17.440Z,91.12
2023-01-13T00:46:17.497Z,91.28
2023-01-13T00:47:17.443Z,90.88
2023-01-13T00:48:17.525Z,90.71
2023-01-13T00:49:17.565Z,90.31
2023-01-13T00:50:17.565Z,90.14
2023-01-13T00:51:17.605Z,90.41
2023-01-13T00:52:17.604Z,89.59
2023-01-13T00:53:17.626Z,89.84
2023-01-13T00:54:17.680Z,89.28
2023-01-13T00:55:17.685Z,88.43
2023-01-13T00:56:19.985Z,88.84
2023-01-13T00:57:17.708Z,87.61
2023-01-13T00:58:17.764Z,87.65
2023-01-13T00:59:17.726Z,88.37
2023-01-13T01:00:17.805Z,88.37
2023-01-13T01:01:17.930Z,88.17
2023-01-13T01:02:17.863Z,88.57
2023-01-13T01:03:17.788Z,88.17
2023-01-13T01:04:17.825Z,87.65
2023-01-13T01:05:17.886Z,87.55
2023-01-13T01:06:17.948Z,87.76
2023-01-13T01:07:17.979Z,87.51
2023-01-13T01:08:18.013Z,86.83
2023-01-13T01:09:18.027Z,86.22
2023-01-13T01:10:18.106Z,86.57
2023-01-13T01:11:18.139Z,85.86
2023-01-13T01:12:18.117Z,85.71
2023-01-13T01:13:18.147Z,85.61
2023-01-13T01:14:18.189Z,85.06
2023-01-13T01:15:18.231Z,84.86
2023-01-13T01:16:18.319Z,84.28
2023-01-13T01:17:18.311Z,84.63
2023-01-13T01:18:18.323Z,84.69
2023-01-13T01:19:18.299Z,84.75
2023-01-13T01:20:18.376Z,84.08
2023-01-13T01:21:18.423Z,84.94
2023-01-13T01:22:18.474Z,84.39
2023-01-13T01:23:18.498Z,84.39
2023-01-13T01:24:18.553Z,84.22
2023-01-13T01:25:18.628Z,84.42
2023-01-13T01:26:18.666Z,84.28
2023-01-13T01:27:18.674Z,84.01
2023-01-13T01:28:18.723Z,84.39
2023-01-13T01:29:18.743Z,84.33
2023-01-13T01:30:18.814Z,84.42
2023-01-13T01:31:18.880Z,84.12
2023-01-13T01:32:18.849Z,84.12
2023-01-13T01:33:18.892Z,83.81
2023-01-13T01:34:18.897Z,83.67
2023-01-13T01:35:18.894Z,83.98
2023-01-13T01:36:18.911Z,83.87
2023-01-13T01:37:19.004Z,83.71
2023-01-13T01:38:19.016Z,83.61
2023-01-13T01:39:19.039Z,84.22
2023-01-13T01:40:19.066Z,84.12
2023-01-13T01:41:19.136Z,84.22
2023-01-13T01:42:19.176Z,84.18
2023-01-13T01:43:19.180Z,83.87
2023-01-13T01:44:19.148Z,83.78
2023-01-13T01:45:19.218Z,83.61
2023-01-13T01:46:19.250Z,84.26
2023-01-13T01:47:19.284Z,84.83
2023-01-13T01:48:19.298Z,84.47
2023-01-13T01:49:19.382Z,84.47
2023-01-13T01:50:19.381Z,84.47
2023-01-13T01:51:19.371Z,84.22
2023-01-13T01:52:19.399Z,83.95
2023-01-13T01:53:19.391Z,83.87
2023-01-13T01:54:19.453Z,83.44
2023-01-13T01:55:19.514Z,84.01
2023-01-13T01:56:19.513Z,84.26
2023-01-13T01:57:19.594Z,83.89
2023-01-13T01:58:19.532Z,84.06
2023-01-13T01:59:19.553Z,83.44
2023-01-13T02:00:19.622Z,83.54
2023-01-13T02:01:19.839Z,82.77
2023-01-13T02:02:19.705Z,82.83
2023-01-13T02:03:19.697Z,81.95
2023-01-13T02:04:19.785Z,82.15
2023-01-13T02:05:19.757Z,81.95
2023-01-13T02:06:19.809Z,81.34
2023-01-13T02:07:19.819Z,81.20
2023-01-13T02:08:19.815Z,80.99
2023-01-13T02:09:19.804Z,81.20
2023-01-13T02:10:19.836Z,80.79
2023-01-13T02:11:19.924Z,80.83
2023-01-13T02:12:19.941Z,81.24
2023-01-13T02:13:19.903Z,81.44
2023-01-13T02:14:19.956Z,80.93
2023-01-13T02:15:19.967Z,80.73
2023-01-13T02:16:20.058Z,80.73
2023-01-13T02:17:20.043Z,80.83
2023-01-13T02:18:20.082Z,80.48
2023-01-13T02:19:20.075Z,80.58
2023-01-13T02:20:20.101Z,80.99
2023-01-13T02:21:20.111Z,80.89
2023-01-13T02:22:20.198Z,81.10
2023-01-13T02:23:20.228Z,80.69
2023-01-13T02:24:20.238Z,81.03
2023-01-13T02:25:20.254Z,81.30
2023-01-13T02:26:20.319Z,81.24
2023-01-13T02:27:20.327Z,80.99
2023-01-13T02:28:20.359Z,80.69
2023-01-13T02:29:20.439Z,80.89
2023-01-13T02:30:20.455Z,80.99
2023-01-13T02:31:20.517Z,80.14
2023-01-13T02:32:20.512Z,80.24
2023-01-13T02:33:20.538Z,80.99
2023-01-13T02:34:20.591Z,80.89
2023-01-13T02:35:20.620Z,81.71
2023-01-13T02:36:20.630Z,81.40
2023-01-13T02:37:20.692Z,81.30
2023-01-13T02:38:20.712Z,81.34
2023-01-13T02:39:20.703Z,82.12
2023-01-13T02:40:20.723Z,81.51
2023-01-13T02:41:20.825Z,81.51
2023-01-13T02:42:20.838Z,81.67
2023-01-13T02:43:20.841Z,81.40
2023-01-13T02:44:20.863Z,82.01
2023-01-13T02:45:20.840Z,81.91
2023-01-13T02:46:20.895Z,81.98
2023-01-13T02:47:20.954Z,81.51
2023-01-13T02:48:20.946Z,81.74
2023-01-13T02:49:20.949Z,82.53
2023-01-13T02:50:20.994Z,81.60
2023-01-13T02:51:21.057Z,81.44
2023-01-13T02:52:21.024Z,82.15
2023-01-13T02:53:21.033Z,81.71
2023-01-13T02:54:21.093Z,82.12
2023-01-13T02:55:21.127Z,81.91
2023-01-13T02:56:21.124Z,82.01
2023-01-13T02:57:21.158Z,81.91
2023-01-13T02:58:21.169Z,82.01
2023-01-13T02:59:21.235Z,81.67
2023-01-13T03:00:21.197Z,80.79
2023-01-13T03:01:21.351Z,80.83
2023-01-13T03:02:21.453Z,80.73
2023-01-13T03:03:21.267Z,80.48
2023-01-13T03:04:21.276Z,80.21
2023-01-13T03:05:21.316Z,80.42
2023-01-13T03:06:21.313Z,80.28
2023-01-13T03:07:21.360Z,79.77
2023-01-13T03:08:21.367Z,79.87
2023-01-13T03:09:21.367Z,79.87
2023-01-13T03:10:21.342Z,79.87
2023-01-13T03:11:21.368Z,79.91
2023-01-13T03:12:21.418Z,80.18
2023-01-13T03:13:21.417Z,80.01
2023-01-13T03:14:21.489Z,79.97
2023-01-13T03:15:21.489Z,79.77
2023-01-13T03:16:21.557Z,79.97
2023-01-13T03:17:21.566Z,80.07
2023-01-13T03:18:21.564Z,79.77
2023-01-13T03:19:21.582Z,79.66
2023-01-13T03:20:21.602Z,79.87
2023-01-13T03:21:21.654Z,80.07
2023-01-13T03:22:21.630Z,80.18
2023-01-13T03:23:21.650Z,80.28
2023-01-13T03:24:21.658Z,79.87
2023-01-13T03:25:21.718Z,80.07
2023-01-13T03:26:21.732Z,80.04
2023-01-13T03:27:21.781Z,79.08
2023-01-13T03:28:21.803Z,79.32
2023-01-13T03:29:21.835Z,79.87
2023-01-13T03:30:21.838Z,80.48
2023-01-13T03:31:21.893Z,79.36
2023-01-13T03:32:21.893Z,79.60
2023-01-13T03:33:21.943Z,80.18
2023-01-13T03:34:21.997Z,79.50
2023-01-13T03:35:21.995Z,80.15
2023-01-13T03:36:22.005Z,79.64
2023-01-13T03:37:22.042Z,79.57
2023-01-13T03:38:22.093Z,79.94
2023-01-13T03:39:22.097Z,78.52
2023-01-13T03:40:22.117Z,78.48
2023-01-13T03:41:22.125Z,78.07
2023-01-13T03:42:22.174Z,78.31
2023-01-13T03:43:22.186Z,78.20
2023-01-13T03:44:22.234Z,78.31
2023-01-13T03:45:22.226Z,77.76
2023-01-13T03:46:22.382Z,77.72
2023-01-13T03:47:22.347Z,77.35
2023-01-13T03:48:22.387Z,77.83
2023-01-13T03:49:22.387Z,77.66
2023-01-13T03:50:22.442Z,78.27
2023-01-13T03:51:22.454Z,77.45
2023-01-13T03:52:22.488Z,77.80
2023-01-13T03:53:22.518Z,77.90
2023-01-13T03:54:22.519Z,77.25
2023-01-13T03:55:22.571Z,77.76
2023-01-13T03:56:22.590Z,77.56
2023-01-13T03:57:22.649Z,77.01
2023-01-13T03:58:22.672Z,77.45
2023-01-13T03:59:22.699Z,77.42
2023-01-13T04:00:22.713Z,77.56
2023-01-13T04:01:22.891Z,78.07
2023-01-13T04:02:22.772Z,78.07
2023-01-13T04:03:22.790Z,78.03
2023-01-13T04:04:22.775Z,77.31
2023-01-13T04:05:22.773Z,77.31
2023-01-13T04:06:22.829Z,77.76
2023-01-13T04:07:22.865Z,77.72
2023-01-13T04:08:22.853Z,78.13
2023-01-13T04:09:22.912Z,77.48
2023-01-13T04:10:22.953Z,76.97
2023-01-13T04:11:22.972Z,77.62
2023-01-13T04:12:22.995Z,77.52
2023-01-13T04:13:23.042Z,77.72
2023-01-13T04:14:23.072Z,77.83
2023-01-13T04:15:23.072Z,77.66
2023-01-13T04:16:23.076Z,77.76
2023-01-13T04:17:23.085Z,78.11
2023-01-13T04:18:23.093Z,78.11
2023-01-13T04:19:23.135Z,78.07
2023-01-13T04:20:23.195Z,78.00
2023-01-13T04:21:23.185Z,78.20
2023-01-13T04:22:23.185Z,78.11
2023-01-13T04:23:23.207Z,78.11
2023-01-13T04:24:23.276Z,77.97
2023-01-13T04:25:23.290Z,77.86
2023-01-13T04:26:23.343Z,78.00
2023-01-13T04:27:23.404Z,78.11
2023-01-13T04:28:23.427Z,78.17
2023-01-13T04:29:23.461Z,77.62
2023-01-13T04:30:23.462Z,77.97
2023-01-13T04:31:23.537Z,77.45
2023-01-13T04:32:23.442Z,78.41
2023-01-13T04:33:23.518Z,78.45
2023-01-13T04:34:23.501Z,78.82
2023-01-13T04:35:23.523Z,77.97
2023-01-13T04:36:23.507Z,77.56
2023-01-13T04:37:23.560Z,77.42
2023-01-13T04:38:23.631Z,77.52
2023-01-13T04:39:23.686Z,76.87
2023-01-13T04:40:23.699Z,77.01
2023-01-13T04:41:23.769Z,77.66
2023-01-13T04:42:23.766Z,78.11
2023-01-13T04:43:23.744Z,78.68
2023-01-13T04:44:23.772Z,77.97
2023-01-13T04:45:23.831Z,77.72
2023-01-13T04:46:23.937Z,77.22
2023-01-13T04:47:23.914Z,77.76
2023-01-13T04:48:23.888Z,78.07
2023-01-13T04:49:23.941Z,78.48
2023-01-13T04:50:23.952Z,78.17
2023-01-13T04:51:23.982Z,78.11
2023-01-13T04:52:24.003Z,78.31
2023-01-13T04:53:24.031Z,77.56
2023-01-13T04:54:24.023Z,77.08
2023-01-13T04:55:24.054Z,77.49
2023-01-13T04:56:24.093Z,77.59
2023-01-13T04:57:24.175Z,77.01
2023-01-13T04:58:24.205Z,78.34
2023-01-13T04:59:24.231Z,77.70
2023-01-13T05:00:24.256Z,76.91
2023-01-13T05:01:24.390Z,76.91
2023-01-13T05:02:24.314Z,76.91
2023-01-13T05:03:24.261Z,76.47
2023-01-13T05:04:24.319Z,76.40
2023-01-13T05:05:24.298Z,76.61
2023-01-13T05:06:24.309Z,76.09
2023-01-13T05:07:24.377Z,76.20
2023-01-13T05:08:24.427Z,76.40
2023-01-13T05:09:24.477Z,76.40
2023-01-13T05:10:24.539Z,76.20
2023-01-13T05:11:24.589Z,76.20
2023-01-13T05:12:24.657Z,76.50
2023-01-13T05:13:24.639Z,76.54
2023-01-13T05:14:24.681Z,76.50
2023-01-13T05:15:24.753Z,76.30
2023-01-13T05:16:24.847Z,76.40
2023-01-13T05:17:24.788Z,76.61
2023-01-13T05:18:24.820Z,76.71
2023-01-13T05:19:24.869Z,76.64
2023-01-13T05:20:24.910Z,76.84
2023-01-13T05:21:24.909Z,76.75
2023-01-13T05:22:24.950Z,77.01
2023-01-13T05:23:25.011Z,76.06
2023-01-13T05:24:25.076Z,76.20
2023-01-13T05:25:25.153Z,76.30
2023-01-13T05:26:25.080Z,76.71
2023-01-13T05:27:25.132Z,75.99
2023-01-13T05:28:25.210Z,75.89
2023-01-13T05:29:25.192Z,76.20
2023-01-13T05:30:25.243Z,76.23
2023-01-13T05:31:25.334Z,76.43
2023-01-13T05:32:25.262Z,76.75
2023-01-13T05:33:25.343Z,76.23
2023-01-13T05:34:25.407Z,76.68
2023-01-13T05:35:25.447Z,76.84
2023-01-13T05:36:25.532Z,76.84
2023-01-13T05:37:25.584Z,76.06
2023-01-13T05:38:25.614Z,76.57
2023-01-13T05:39:25.685Z,76.27
2023-01-13T05:40:25.744Z,76.37
2023-01-13T05:41:25.735Z,76.37
2023-01-13T05:42:25.754Z,76.27
2023-01-13T05:43:25.754Z,75.82
2023-01-13T05:44:25.756Z,75.93
2023-01-13T05:45:25.815Z,75.82
2023-01-13T05:46:25.982Z,75.72
2023-01-13T05:47:25.867Z,76.27
2023-01-13T05:48:25.906Z,75.93
2023-01-13T05:49:26.817Z,75.82
2023-01-13T05:50:25.957Z,75.48
2023-01-13T05:51:26.160Z,75.52
2023-01-13T05:52:26.004Z,75.82
2023-01-13T05:53:26.022Z,76.27
2023-01-13T05:54:26.062Z,77.43
2023-01-13T05:55:26.078Z,77.43
2023-01-13T05:56:26.092Z,78.15
2023-01-13T05:57:26.150Z,78.15
2023-01-13T05:58:26.210Z,77.53
2023-01-13T05:59:26.266Z,77.60
2023-01-13T06:00:26.305Z,76.88
2023-01-13T06:01:26.430Z,77.23
2023-01-13T06:02:26.373Z,78.15
2023-01-13T06:03:26.361Z,78.19
2023-01-13T06:04:26.359Z,78.25
2023-01-13T06:05:26.373Z,77.64
2023-01-13T06:06:26.379Z,78.15
2023-01-13T06:07:26.438Z,77.53
2023-01-13T06:08:26.491Z,77.43
2023-01-13T06:09:26.480Z,77.53
2023-01-13T06:10:26.482Z,77.43
2023-01-13T06:11:26.503Z,77.23
2023-01-13T06:12:26.536Z,76.72
2023-01-13T06:13:26.518Z,77.02
2023-01-13T06:14:26.522Z,76.81
2023-01-13T06:15:26.547Z,76.92
2023-01-13T06:16:26.651Z,77.26
2023-01-13T06:17:26.585Z,76.40
2023-01-13T06:19:52.541Z,76.17
2023-01-13T06:20:52.620Z,75.79
2023-01-13T06:21:52.683Z,75.79
2023-01-13T06:22:52.720Z,76.20
2023-01-13T06:23:52.804Z,75.79
2023-01-13T06:24:52.775Z,76.31
2023-01-13T06:25:52.821Z,75.99
2023-01-13T06:26:52.884Z,76.20
2023-01-13T06:27:52.928Z,76.20
2023-01-13T06:28:53.005Z,76.31
2023-01-13T06:29:53.056Z,76.20
2023-01-13T06:30:53.112Z,75.59
2023-01-13T06:31:53.189Z,76.20
2023-01-13T06:32:53.137Z,76.20
2023-01-13T06:33:53.155Z,76.24
2023-01-13T06:34:53.167Z,76.75
2023-01-13T06:35:53.226Z,77.26
2023-01-13T06:36:53.630Z,76.31
2023-01-13T06:37:53.259Z,76.20
2023-01-13T06:38:53.260Z,76.54
2023-01-13T06:39:53.283Z,76.65
2023-01-13T06:40:53.317Z,77.26
2023-01-13T06:41:53.339Z,77.06
2023-01-13T06:42:53.369Z,76.75
2023-01-13T06:43:53.398Z,76.54
2023-01-13T06:44:53.418Z,76.95
2023-01-13T06:45:53.436Z,76.85
2023-01-13T06:46:53.620Z,77.20
2023-01-13T06:47:53.560Z,77.29
2023-01-13T06:48:53.609Z,76.95
2023-01-13T06:49:54.563Z,76.75
2023-01-13T06:50:53.664Z,76.78
2023-01-13T06:51:53.712Z,76.95
2023-01-13T06:52:53.679Z,76.75
2023-01-13T06:53:53.739Z,76.85
2023-01-13T06:54:53.784Z,76.54
2023-01-13T06:55:53.852Z,76.44
2023-01-13T06:56:53.838Z,76.75
2023-01-13T06:57:53.831Z,76.65
2023-01-13T06:58:53.927Z,76.89
2023-01-13T06:59:53.888Z,76.78
2023-01-13T07:00:54.026Z,76.99
2023-01-13T07:01:54.147Z,76.44
2023-01-13T07:02:54.024Z,76.24
2023-01-13T07:03:54.894Z,76.51
2023-01-13T07:04:54.107Z,75.99
2023-01-13T07:05:54.107Z,75.89
2023-01-13T07:06:54.107Z,76.44
2023-01-13T07:07:54.167Z,76.31
2023-01-13T07:08:54.166Z,76.65
2023-01-13T07:09:54.214Z,76.95
2023-01-13T07:10:54.309Z,77.16
2023-01-13T07:11:54.271Z,77.06
2023-01-13T07:12:54.305Z,76.81
2023-01-13T07:13:54.369Z,76.65
2023-01-13T07:14:54.352Z,76.95
2023-01-13T07:15:54.357Z,76.54
2023-01-13T07:16:54.373Z,76.72
2023-01-13T07:17:54.384Z,76.72
2023-01-13T07:18:54.405Z,76.72
2023-01-13T07:19:54.397Z,76.61
2023-01-13T07:20:54.444Z,76.61
2023-01-13T07:21:54.508Z,76.92
2023-01-13T07:22:54.561Z,77.02
2023-01-13T07:23:54.631Z,76.23
2023-01-13T07:24:54.615Z,75.82
2023-01-13T07:25:54.647Z,76.13
2023-01-13T07:26:54.709Z,75.62
2023-01-13T07:27:54.717Z,76.81
2023-01-13T07:28:54.727Z,77.33
2023-01-13T07:29:54.728Z,77.02
2023-01-13T07:30:54.817Z,76.98
2023-01-13T07:31:57.284Z,77.12
2023-01-13T07:32:54.877Z,77.23
2023-01-13T07:33:54.936Z,77.29
2023-01-13T07:34:54.909Z,77.29
2023-01-13T07:35:55.003Z,77.33
2023-01-13T07:36:55.042Z,77.73
2023-01-13T07:37:55.080Z,77.84
2023-01-13T07:38:55.798Z,77.73
2023-01-13T07:39:56.060Z,77.60
2023-01-13T07:40:55.178Z,77.09
2023-01-13T07:41:55.163Z,76.88
2023-01-13T07:42:55.208Z,77.53
2023-01-13T07:43:55.241Z,77.53
2023-01-13T07:44:55.272Z,77.23
2023-01-13T07:45:55.265Z,77.43
2023-01-13T07:46:55.250Z,77.43
2023-01-13T07:47:55.245Z,77.33
2023-01-13T07:48:55.233Z,77.23
2023-01-13T07:49:56.076Z,77.23
2023-01-13T07:50:56.094Z,77.02
2023-01-13T07:51:55.452Z,76.81
2023-01-13T07:52:56.224Z,77.02
2023-01-13T07:53:55.298Z,76.92
2023-01-13T07:54:55.292Z,76.40
2023-01-13T07:55:55.264Z,76.40
2023-01-13T07:56:55.295Z,76.10
2023-01-13T07:57:55.344Z,76.47
2023-01-13T07:58:55.365Z,76.51
2023-01-13T07:59:55.396Z,75.76
2023-01-13T08:00:55.528Z,75.48
2023-01-13T08:01:55.649Z,76.20
2023-01-13T08:02:55.512Z,76.20
2023-01-13T08:03:55.506Z,76.44
2023-01-13T08:04:55.588Z,75.99
2023-01-13T08:05:55.626Z,75.69
2023-01-13T08:06:55.671Z,75.55
2023-01-13T08:07:55.661Z,74.97
2023-01-13T08:08:55.686Z,76.40
2023-01-13T08:09:55.737Z,75.79
2023-01-13T08:10:55.728Z,75.79
2023-01-13T08:11:55.757Z,75.38
2023-01-13T08:12:57.185Z,75.69
2023-01-13T08:13:55.859Z,75.18
2023-01-13T08:14:56.127Z,75.04
2023-01-13T08:15:55.939Z,75.18
2023-01-13T08:16:56.073Z,75.07
2023-01-13T08:17:56.076Z,75.28
2023-01-13T08:18:56.034Z,74.97
2023-01-13T08:19:56.021Z,74.87
2023-01-13T08:20:56.052Z,74.15
2023-01-13T08:21:56.031Z,74.26
2023-01-13T08:22:56.052Z,74.26
2023-01-13T08:23:56.082Z,73.81
2023-01-13T08:24:56.104Z,73.36
2023-01-13T08:25:56.109Z,73.27
2023-01-13T08:26:56.101Z,73.40
2023-01-13T08:27:56.144Z,73.36
2023-01-13T08:28:56.253Z,73.06
2023-01-13T08:29:56.195Z,72.45
2023-01-13T08:30:56.268Z,72.99
2023-01-13T08:31:56.264Z,73.54
2023-01-13T08:32:56.322Z,73.33
2023-01-13T08:33:56.392Z,73.10
2023-01-13T08:34:56.373Z,72.58
2023-01-13T08:35:56.363Z,72.78
2023-01-13T08:36:56.346Z,72.78
2023-01-13T08:37:56.405Z,72.48
2023-01-13T08:38:56.434Z,72.65
2023-01-13T08:39:56.416Z,71.94
2023-01-13T08:40:56.453Z,72.58
2023-01-13T08:41:56.545Z,72.82
2023-01-13T08:42:56.473Z,73.10
2023-01-13T08:43:56.501Z,72.48
2023-01-13T08:44:56.494Z,72.58
2023-01-13T08:45:56.626Z,72.07
2023-01-13T08:46:56.597Z,72.04
2023-01-13T08:47:56.634Z,71.97
2023-01-13T08:48:56.689Z,71.73
2023-01-13T08:49:56.661Z,72.14
2023-01-13T08:50:56.889Z,71.62
2023-01-13T08:51:56.708Z,71.83
2023-01-13T08:52:56.729Z,71.66
2023-01-13T08:53:56.732Z,72.28
2023-01-13T08:54:56.737Z,72.24
2023-01-13T08:55:56.730Z,71.83
2023-01-13T08:56:56.891Z,71.90
2023-01-13T08:58:14.134Z,71.77
2023-01-13T08:58:57.068Z,71.86
2023-01-13T08:59:57.885Z,71.45
2023-01-13T09:00:57.039Z,71.45
2023-01-13T09:01:57.450Z,71.97
2023-01-13T09:02:57.172Z,71.66
2023-01-13T09:03:57.126Z,71.97
2023-01-13T09:04:57.053Z,71.86
2023-01-13T09:05:57.092Z,71.66
2023-01-13T09:06:57.092Z,71.86
2023-01-13T09:07:57.115Z,71.45
2023-01-13T09:08:57.203Z,71.36
2023-01-13T09:09:57.496Z,71.77
2023-01-13T09:10:57.273Z,71.66
2023-01-13T09:11:57.365Z,71.73
2023-01-13T09:12:57.415Z,71.86
2023-01-13T09:13:58.124Z,71.77
2023-01-13T09:14:57.445Z,71.56
2023-01-13T09:15:58.223Z,71.45
2023-01-13T09:16:57.470Z,71.45
2023-01-13T09:17:58.668Z,71.77
2023-01-13T09:18:57.534Z,71.77
2023-01-13T09:19:57.601Z,71.45
2023-01-13T09:20:57.615Z,71.22
2023-01-13T09:21:57.619Z,71.32
2023-01-13T09:22:57.654Z,71.01
2023-01-13T09:23:57.696Z,71.73
2023-01-13T09:24:57.729Z,71.25
2023-01-13T09:25:57.784Z,71.56
2023-01-13T09:26:58.708Z,71.45
2023-01-13T09:27:57.866Z,71.36
2023-01-13T09:28:57.768Z,71.32
2023-01-13T09:29:57.821Z,71.01
2023-01-13T09:30:58.867Z,71.53
2023-01-13T09:31:57.982Z,71.29
2023-01-13T09:32:57.990Z,71.62
2023-01-13T09:33:58.129Z,71.53
2023-01-13T09:34:58.078Z,71.45
2023-01-13T09:35:58.049Z,71.80
2023-01-13T09:37:04.766Z,71.29
2023-01-13T09:37:58.130Z,71.01
2023-01-13T09:38:58.153Z,71.62
2023-01-13T09:39:58.188Z,71.53
2023-01-13T09:40:58.191Z,72.00
2023-01-13T09:41:58.175Z,71.97
2023-01-13T09:42:58.226Z,72.45
2023-01-13T09:43:58.292Z,71.62
2023-01-13T09:44:58.373Z,71.39
2023-01-13T09:45:58.422Z,71.90
2023-01-13T09:46:58.482Z,71.42
2023-01-13T09:47:58.525Z,71.53
2023-01-13T09:48:58.545Z,71.56
2023-01-13T09:49:58.607Z,72.07
2023-01-13T09:50:58.699Z,71.32
2023-01-13T09:51:58.667Z,71.62
2023-01-13T09:52:58.703Z,71.19
2023-01-13T09:53:58.705Z,71.39
2023-01-13T09:54:58.765Z,71.25
2023-01-13T09:55:58.786Z,71.56
2023-01-13T09:56:58.816Z,72.34
2023-01-13T09:57:58.795Z,71.42
2023-01-13T09:58:59.076Z,71.12
2023-01-13T09:59:58.875Z,70.71
2023-01-13T10:00:58.894Z,71.32
2023-01-13T10:01:58.855Z,70.88
2023-01-13T10:02:59.609Z,70.57
2023-01-13T10:03:58.854Z,71.22
2023-01-13T10:04:58.870Z,70.88
2023-01-13T10:05:58.851Z,70.57
2023-01-13T10:06:58.879Z,71.08
2023-01-13T10:07:58.846Z,70.37
2023-01-13T10:08:58.862Z,70.50
2023-01-13T10:09:58.889Z,70.91
2023-01-13T10:10:58.920Z,70.50
2023-01-13T10:11:58.921Z,70.71
2023-01-13T10:12:58.940Z,70.26
2023-01-13T10:13:58.969Z,69.99
2023-01-13T10:14:59.016Z,70.74
2023-01-13T10:16:00.793Z,71.04
2023-01-13T10:16:59.033Z,70.81
2023-01-13T10:17:59.011Z,71.04
2023-01-13T10:18:59.000Z,71.04
2023-01-13T10:19:59.064Z,71.45
2023-01-13T10:20:59.112Z,72.28
2023-01-13T10:21:59.072Z,71.77
2023-01-13T10:22:59.081Z,72.20
2023-01-13T10:23:59.096Z,72.58
2023-01-13T10:24:59.097Z,72.04
2023-01-13T10:25:59.137Z,71.45
2023-01-13T10:26:59.126Z,71.69
2023-01-13T10:27:59.202Z,72.07
2023-01-13T10:29:00.182Z,71.97
2023-01-13T10:29:59.220Z,71.83
2023-01-13T10:30:59.339Z,71.53
2023-01-13T10:31:59.330Z,71.01
2023-01-13T10:33:00.025Z,70.61
2023-01-13T10:33:59.352Z,70.50
2023-01-13T10:34:59.415Z,70.43
2023-01-13T10:35:59.504Z,70.71
2023-01-13T10:36:59.514Z,70.50
2023-01-13T10:37:59.555Z,70.94
2023-01-13T10:38:59.576Z,70.20
2023-01-13T10:39:59.586Z,70.29
2023-01-13T10:40:59.632Z,70.40
2023-01-13T10:41:59.666Z,70.03
2023-01-13T10:42:59.676Z,70.29
2023-01-13T10:43:59.646Z,69.45
2023-01-13T10:44:59.676Z,69.48
2023-01-13T10:45:59.785Z,70.29
2023-01-13T10:46:59.779Z,69.38
2023-01-13T10:47:59.758Z,70.40
2023-01-13T10:48:59.822Z,69.79
2023-01-13T10:49:59.870Z,69.58
2023-01-13T10:50:59.900Z,69.75
2023-01-13T10:51:59.971Z,69.31
2023-01-13T10:52:59.925Z,69.65
2023-01-13T10:53:59.982Z,68.63
2023-01-13T10:55:00.049Z,68.93
2023-01-13T10:56:00.027Z,68.70
2023-01-13T10:57:00.064Z,68.70
2023-01-13T10:58:00.053Z,69.04
2023-01-13T10:59:00.117Z,69.14
2023-01-13T11:00:00.197Z,69.01
2023-01-13T11:01:00.175Z,69.45
2023-01-13T11:02:00.967Z,69.34
2023-01-13T11:03:01.143Z,69.24
2023-01-13T11:04:00.358Z,69.14
2023-01-13T11:05:00.401Z,69.17
2023-01-13T11:06:00.244Z,69.65
2023-01-13T11:07:00.496Z,69.45
2023-01-13T11:08:00.285Z,68.90
2023-01-13T11:09:00.330Z,69.01
2023-01-13T11:10:00.337Z,68.39
2023-01-13T11:11:00.842Z,69.65
2023-01-13T11:12:00.339Z,69.11
2023-01-13T11:13:00.434Z,68.73
2023-01-13T11:14:00.445Z,69.14
2023-01-13T11:15:00.475Z,69.21
2023-01-13T11:16:00.452Z,68.80
2023-01-13T11:17:00.491Z,68.66
2023-01-13T11:18:01.588Z,68.12
2023-01-13T11:19:00.588Z,65.99
2023-01-13T11:20:00.599Z,64.43
2023-01-13T11:21:00.612Z,64.46
2023-01-13T11:22:00.616Z,66.09
2023-01-13T11:23:00.680Z,65.28
2023-01-13T11:24:00.686Z,65.81
2023-01-13T11:25:00.722Z,64.76
2023-01-13T11:26:00.736Z,64.87
2023-01-13T11:27:00.807Z,65.41
2023-01-13T11:28:00.847Z,64.97
2023-01-13T11:29:00.817Z,65.75
2023-01-13T11:30:00.871Z,65.37
2023-01-13T11:31:00.962Z,64.73
2023-01-13T11:32:00.973Z,63.56
2023-01-13T11:33:01.043Z,63.09
2023-01-13T11:34:01.061Z,62.74
2023-01-13T11:35:01.051Z,62.81
2023-01-13T11:36:01.056Z,64.53
2023-01-13T11:37:01.083Z,64.66
2023-01-13T11:38:01.060Z,64.87
2023-01-13T11:39:01.068Z,65.51
2023-01-13T11:40:01.146Z,67.00
2023-01-13T11:41:01.236Z,67.75
2023-01-13T11:42:01.225Z,67.92
2023-01-13T11:43:01.267Z,68.33
2023-01-13T11:44:01.263Z,68.46
2023-01-13T11:45:01.313Z,68.46
2023-01-13T11:46:01.363Z,68.77
2023-01-13T11:47:01.509Z,68.74
2023-01-13T11:48:01.479Z,68.26
2023-01-13T11:49:01.563Z,68.39
2023-01-13T11:50:01.593Z,68.46
2023-01-13T11:51:01.593Z,68.84
2023-01-13T11:52:01.628Z,67.82
2023-01-13T11:53:01.641Z,68.12
2023-01-13T11:54:01.621Z,68.12
2023-01-13T11:55:01.623Z,68.12
2023-01-13T11:56:01.626Z,68.57
2023-01-13T11:57:01.700Z,69.07
2023-01-13T11:58:01.768Z,68.77
2023-01-13T11:59:02.488Z,69.01
2023-01-13T12:00:01.895Z,69.52
2023-01-13T12:01:01.910Z,69.59
2023-01-13T12:02:02.026Z,68.97
2023-01-13T12:03:02.104Z,69.11
2023-01-13T12:04:02.098Z,69.11
2023-01-13T12:05:02.140Z,69.62
2023-01-13T12:06:02.225Z,69.11
2023-01-13T12:07:02.158Z,69.18
2023-01-13T12:08:02.226Z,69.28
2023-01-13T12:09:02.312Z,68.77
2023-01-13T12:10:03.632Z,68.87
2023-01-13T12:11:02.262Z,69.42
2023-01-13T12:12:02.345Z,69.93
2023-01-13T12:13:02.343Z,69.62
2023-01-13T12:14:02.364Z,69.52
2023-01-13T12:15:02.396Z,71.19
2023-01-13T12:16:02.413Z,70.95
2023-01-13T12:17:02.441Z,70.43
2023-01-13T12:18:02.462Z,70.23
2023-01-13T12:19:02.517Z,70.34
2023-01-13T12:20:02.500Z,70.26
2023-01-13T12:21:02.584Z,70.43
2023-01-13T12:22:02.573Z,70.26
2023-01-13T12:23:02.569Z,70.84
2023-01-13T12:24:02.623Z,70.88
2023-01-13T12:25:02.619Z,71.36
2023-01-13T12:26:02.666Z,71.46
2023-01-13T12:27:02.707Z,71.77
2023-01-13T12:28:02.769Z,71.80
2023-01-13T12:29:02.820Z,72.72
2023-01-13T12:30:02.776Z,72.82
2023-01-13T12:31:02.845Z,72.72
2023-01-13T12:32:02.853Z,72.82
2023-01-13T12:33:02.818Z,72.41
2023-01-13T12:34:02.828Z,72.28
2023-01-13T12:35:03.098Z,72.31
2023-01-13T12:36:02.974Z,73.03
2023-01-13T12:37:02.987Z,72.72
2023-01-13T12:38:03.066Z,72.48
2023-01-13T12:39:03.026Z,72.14
2023-01-13T12:40:03.099Z,72.72
2023-01-13T12:41:03.118Z,72.62
2023-01-13T12:42:03.141Z,73.36
2023-01-13T12:43:03.186Z,73.61
2023-01-13T12:44:03.249Z,73.74
2023-01-13T12:45:03.289Z,73.85
2023-01-13T12:46:03.297Z,74.43
2023-01-13T12:47:03.288Z,73.54
2023-01-13T12:48:03.290Z,73.44
2023-01-13T12:49:03.381Z,73.23
2023-01-13T12:50:03.443Z,73.74
2023-01-13T12:51:03.443Z,73.13
2023-01-13T12:52:03.507Z,73.10
2023-01-13T12:53:03.505Z,72.79
2023-01-13T12:54:03.553Z,72.79